M I D A S
Marine Information and Data Acquisition System
Tripno 177 of the Zeeleeuw from 2001-11-12 07:05:00 to 2001-11-14 18:20:00
Back to CruiseResearch ActivitiesStationsMapUnderway DataData graphs

EquipmentUnitsComment
TimeDGPSUTC
LatitudeDGPSDM.mWGS84
LongitudeDGPSDM.mWGS84
HeadingGyrodeg 
SOGDGPSknotsSpeed over ground
COGDGPSdegCourse over ground
DepthEcho soundermeters200 kHz
Missing or incorrect values are displayed as -999
Navigation data collected by the RV Zeeleeuw from 2001-11-12 07:05:00 to 2001-11-14 18:20:00
                                                                                    Next 1000 lines
Time Latitude Longitude Heading SOG COG Depth
2001-11-12 08:47:18 51°13.689 2°55.907 1   12.4 -999
2001-11-12 08:47:23 51°13.689 2°55.907 38   4.1 -999
2001-11-12 08:47:28 51°13.689 2°55.907 76   315.2 -999
2001-11-12 08:47:33 51°13.689 2°55.907 119   4 -999
2001-11-12 08:47:38 51°13.689 2°55.907 124.5   27.7 -999
2001-11-12 08:47:43 51°13.689 2°55.907 131.2   36.1 -999
2001-11-12 08:47:48 51°13.689 2°55.907 131   46.4 -999
2001-11-12 08:47:53 51°13.69 2°55.907 130.7   35 -999
2001-11-12 08:47:58 51°13.69 2°55.907 130.7   31.2 -999
2001-11-12 08:48:03 51°13.69 2°55.907 130.3   321.9 -999
2001-11-12 08:48:08 51°13.69 2°55.907 130.3   300.6 -999
2001-11-12 08:48:13 51°13.69 2°55.907 130.5   348.3 -999
2001-11-12 08:48:18 51°13.69 2°55.907 130   6.3 -999
2001-11-12 08:48:23 51°13.69 2°55.907 130.2   313.9 -999
2001-11-12 08:48:28 51°13.69 2°55.907 130   320.8 -999
2001-11-12 08:48:33 51°13.689 2°55.907 130.2   353.2 -999
2001-11-12 08:48:38 51°13.689 2°55.907 130   57.7 -999
2001-11-12 08:48:43 51°13.689 2°55.906 130   48.6 -999
2001-11-12 08:48:48 51°13.689 2°55.906 130   2 -999
2001-11-12 08:48:53 51°13.689 2°55.906 130   8.6 -999
2001-11-12 08:48:58 51°13.689 2°55.906 130   3.2 -999
2001-11-12 08:49:03 51°13.689 2°55.906 130   350 -999
2001-11-12 08:49:08 51°13.689 2°55.906 130   323.2 -999
2001-11-12 08:49:13 51°13.689 2°55.906 130   299 -999
2001-11-12 08:49:18 51°13.689 2°55.906 130   328.5 -999
2001-11-12 08:49:23 51°13.689 2°55.906 130.2   346.1 -999
2001-11-12 08:49:28 51°13.689 2°55.906 130.2   8.8 -999
2001-11-12 08:49:33 51°13.689 2°55.906 130   328.8 -999
2001-11-12 08:49:38 51°13.689 2°55.907 130   21 -999
2001-11-12 08:49:43 51°13.689 2°55.907 130   44.2 -999
2001-11-12 08:49:48 51°13.689 2°55.907 130 0.1 37 -999
2001-11-12 08:49:53 51°13.689 2°55.906 130.2   24.2 -999
2001-11-12 08:49:58 51°13.689 2°55.906 130   346.1 -999
2001-11-12 08:50:03 51°13.689 2°55.906 130   5.8 -999
2001-11-12 08:50:08 51°13.689 2°55.907 130   49.1 -999
2001-11-12 08:50:13 51°13.689 2°55.906 130   29.3 -999
2001-11-12 08:50:18 51°13.689 2°55.906 130   317.5 -999
2001-11-12 08:50:23 51°13.689 2°55.906 130   316.8 -999
2001-11-12 08:50:28 51°13.689 2°55.906 130   14.8 -999
2001-11-12 08:50:33 51°13.689 2°55.906 130 0.1 37.8 -999
2001-11-12 08:50:38 51°13.689 2°55.907 130 0.1 34.8 -999
2001-11-12 08:50:43 51°13.689 2°55.906 130   33 -999
2001-11-12 08:50:48 51°13.689 2°55.906 130   7.7 -999
2001-11-12 08:50:53 51°13.689 2°55.906 130   308.4 -999
2001-11-12 08:50:58 51°13.689 2°55.906 130   309.3 -999
2001-11-12 08:51:03 51°13.689 2°55.906 130   342.6 -999
2001-11-12 08:51:08 51°13.689 2°55.906 130   8 -999
2001-11-12 08:51:13 51°13.69 2°55.906 130   26.8 -999
2001-11-12 08:51:18 51°13.69 2°55.906 130 0.1 42.2 -999
2001-11-12 08:51:23 51°13.69 2°55.906 130   53 -999
2001-11-12 08:51:28 51°13.69 2°55.906 130   43.2 -999
2001-11-12 08:51:33 51°13.689 2°55.906 130   334.2 -999
2001-11-12 08:51:38 51°13.689 2°55.906 130   297.5 -999
2001-11-12 08:51:43 51°13.689 2°55.906 130   306.2 -999
2001-11-12 08:51:48 51°13.689 2°55.906 130   301.4 -999
2001-11-12 08:51:53 51°13.69 2°55.906 130   342.6 -999
2001-11-12 08:51:58 51°13.69 2°55.906 130   327 -999
2001-11-12 08:52:03 51°13.69 2°55.906 130   318.2 -999
2001-11-12 08:52:08 51°13.69 2°55.906 130   317 -999
2001-11-12 08:52:13 51°13.69 2°55.907 130   277.1 -999
2001-11-12 08:52:18 51°13.69 2°55.907 130   320.3 -999
2001-11-12 08:52:23 51°13.69 2°55.907 130   21.5 -999
2001-11-12 08:52:28 51°13.69 2°55.907 130   45.5 -999
2001-11-12 08:52:33 51°13.69 2°55.907 130   47.1 -999
2001-11-12 08:52:38 51°13.69 2°55.907 130   50.1 -999
2001-11-12 08:52:43 51°13.69 2°55.907 130   51.3 -999
2001-11-12 08:52:48 51°13.69 2°55.907 130.2   45.7 -999
2001-11-12 08:52:53 51°13.69 2°55.906 130   356.6 -999
2001-11-12 08:52:58 51°13.69 2°55.907 130   357.8 -999
2001-11-12 08:53:03 51°13.69 2°55.907 130.2   20.8 -999
2001-11-12 08:53:08 51°13.69 2°55.907 130   335.5 -999
2001-11-12 08:53:13 51°13.69 2°55.907 130   46.5 -999
2001-11-12 08:53:18 51°13.69 2°55.907 130   44.9 -999
2001-11-12 08:53:23 51°13.69 2°55.907 130   356.5 -999
2001-11-12 08:53:28 51°13.69 2°55.907 130   331.1 -999
2001-11-12 08:53:33 51°13.69 2°55.907 130   342.7 -999
2001-11-12 08:53:38 51°13.69 2°55.907 130.2   19.5 -999
2001-11-12 08:53:43 51°13.69 2°55.906 130   15.7 -999
2001-11-12 08:53:48 51°13.69 2°55.907 130   43.4 -999
2001-11-12 08:53:53 51°13.69 2°55.907 130   39.3 -999
2001-11-12 08:53:58 51°13.69 2°55.906 130   5.7 -999
2001-11-12 08:54:03 51°13.69 2°55.907 130.2 0.1 44.8 -999
2001-11-12 08:54:08 51°13.69 2°55.907 130   32.2 -999
2001-11-12 08:54:13 51°13.69 2°55.906 130   309.2 -999
2001-11-12 08:54:18 51°13.69 2°55.907 130   308.1 -999
2001-11-12 08:54:23 51°13.69 2°55.907 130   315.5 -999
2001-11-12 08:54:28 51°13.69 2°55.907 130   358.4 -999
2001-11-12 08:54:33 51°13.69 2°55.906 130   67.5 -999
2001-11-12 08:54:38 51°13.69 2°55.906 130   21.4 -999
2001-11-12 08:54:43 51°13.69 2°55.905 130   332.1 -999
2001-11-12 08:54:48 51°13.69 2°55.905 130   312.1 -999
2001-11-12 08:54:53 51°13.69 2°55.906 130.2   65.9 -999
2001-11-12 08:54:58 51°13.69 2°55.906 130 0.1 72.7 -999
2001-11-12 08:55:03 51°13.69 2°55.906 130 0.1 64 -999
2001-11-12 08:55:08 51°13.69 2°55.906 130   25.4 -999
2001-11-12 08:55:13 51°13.69 2°55.906 130   342.1 -999
2001-11-12 08:55:18 51°13.69 2°55.906 130   335.7 -999
2001-11-12 08:55:23 51°13.69 2°55.906 130   350 -999
2001-11-12 08:55:28 51°13.69 2°55.906 130   341.3 -999
2001-11-12 08:55:33 51°13.69 2°55.906 130   2.2 -999
2001-11-12 08:55:38 51°13.69 2°55.906 130   3.9 -999
2001-11-12 08:55:43 51°13.69 2°55.906 130   329.4 -999
2001-11-12 08:55:48 51°13.69 2°55.906 130   13.3 -999
2001-11-12 08:55:53 51°13.69 2°55.907 130   46.3 -999
2001-11-12 08:55:58 51°13.69 2°55.907 130   38.2 -999
2001-11-12 08:56:03 51°13.69 2°55.907 130   21.4 -999
2001-11-12 08:56:08 51°13.69 2°55.907 130   11.4 10.3
2001-11-12 08:56:11 51°13.69 2°55.907 130   335 10.2
2001-11-12 08:56:14 51°13.69 2°55.907 130   323.9 10.2
2001-11-12 08:56:18 51°13.69 2°55.907 130   21.2 10.3
2001-11-12 08:56:23 51°13.69 2°55.907 130   351.5 10.2
2001-11-12 08:56:28 51°13.69 2°55.906 130   323.6 10.3
2001-11-12 08:56:33 51°13.69 2°55.907 130   329.1 10.3
2001-11-12 08:56:39 51°13.69 2°55.907 130   19.1 10.4
2001-11-12 08:56:43 51°13.69 2°55.907 130.2   53.9 9.9
2001-11-12 08:56:48 51°13.69 2°55.907 130   77.9 9.9
2001-11-12 08:56:53 51°13.69 2°55.907 130   72.7 9.8
2001-11-12 08:56:58 51°13.69 2°55.907 130 0.1 67.8 9.9
2001-11-12 08:57:03 51°13.69 2°55.907 130.2   37.8 9.9
2001-11-12 08:57:08 51°13.69 2°55.907 130   39 10.1
2001-11-12 08:57:13 51°13.69 2°55.907 130   320.8 10.3
2001-11-12 08:57:19 51°13.69 2°55.907 130   299.7 10.2
2001-11-12 08:57:23 51°13.69 2°55.907 130   328.6 10.3
2001-11-12 08:57:28 51°13.69 2°55.907 130   18.6 10.2
2001-11-12 08:57:33 51°13.69 2°55.907 130   38.8 10.2
2001-11-12 08:57:38 51°13.69 2°55.907 130   31.9 9.9
2001-11-12 08:57:43 51°13.69 2°55.907 130   43.3 10
2001-11-12 08:57:49 51°13.69 2°55.907 130   51.1 9.9
2001-11-12 08:57:53 51°13.69 2°55.907 130   22.4 10.2
2001-11-12 08:57:58 51°13.69 2°55.907 130   355.6 10.3
2001-11-12 08:58:03 51°13.69 2°55.907 130   29.4 10.4
2001-11-12 08:58:08 51°13.69 2°55.907 130   39.2 10.3
2001-11-12 08:58:13 51°13.69 2°55.907 130   297.8 10.3
2001-11-12 08:58:19 51°13.69 2°55.907 130   287.9 10.3
2001-11-12 08:58:23 51°13.69 2°55.907 130   324.5 10.3
2001-11-12 08:58:28 51°13.69 2°55.907 130   9.2 10.3
2001-11-12 08:58:33 51°13.69 2°55.907 130   14.4 10.3
2001-11-12 08:58:38 51°13.69 2°55.907 130   359.3 10.1
2001-11-12 08:58:43 51°13.69 2°55.907 130   339.6 10.4
2001-11-12 08:58:48 51°13.69 2°55.907 130   335.1 10.3
2001-11-12 08:58:53 51°13.69 2°55.907 130   321.3 10.3
2001-11-12 08:58:59 51°13.69 2°55.907 130   307.5 10.4
2001-11-12 08:59:03 51°13.69 2°55.907 130   356.5 10.3
2001-11-12 08:59:08 51°13.69 2°55.907 130.2   32 10.2
2001-11-12 08:59:13 51°13.69 2°55.907 130   31.9 10.3
2001-11-12 08:59:19 51°13.69 2°55.907 130.2   4.6 10.3
2001-11-12 08:59:23 51°13.69 2°55.907 130.2   23.2 10.3
2001-11-12 08:59:28 51°13.69 2°55.907 130   23.3 10.3
2001-11-12 08:59:33 51°13.69 2°55.907 130   53.6 10.4
2001-11-12 08:59:39 51°13.69 2°55.907 130   52.1 9.9
2001-11-12 08:59:43 51°13.69 2°55.907 130   16.9 9.9
2001-11-12 08:59:48 51°13.69 2°55.907 130 0.1 9.5 10.1
2001-11-12 08:59:53 51°13.69 2°55.907 130 0.1 3.4 10.1
2001-11-12 08:59:58 51°13.69 2°55.907 130   19 9.7
2001-11-12 09:00:03 51°13.69 2°55.907 130   343.5 10
2001-11-12 09:00:09 51°13.69 2°55.907 129.8   348.3 10.4
2001-11-12 09:00:13 51°13.69 2°55.907 129.7   313.8 10.3
2001-11-12 09:00:19 51°13.69 2°55.907 129.3   354.2 10.1
2001-11-12 09:00:23 51°13.69 2°55.907 129.3   46.2 10.3
2001-11-12 09:00:28 51°13.69 2°55.906 129.2   57.2 10.4
2001-11-12 09:00:32 51°13.69 2°55.906 129.2   328.8 10.2
2001-11-12 09:00:38 51°13.69 2°55.906 129.5   338 10.2
2001-11-12 09:00:43 51°13.69 2°55.907 129.7   6 10.3
2001-11-12 09:00:49 51°13.69 2°55.907 129.8   22.5 10.3
2001-11-12 09:00:53 51°13.689 2°55.907 130   36 10.4
2001-11-12 09:00:58 51°13.689 2°55.907 130   48.7 10.2
2001-11-12 09:01:03 51°13.689 2°55.907 129.8   46.7 10.3
2001-11-12 09:01:08 51°13.689 2°55.907 129.8   53.8 10.4
2001-11-12 09:01:17 51°13.689 2°55.906 129.8   348.4 10.4
2001-11-12 09:01:22 51°13.689 2°55.906 129.8   295.9 10.3
2001-11-12 09:01:27 51°13.689 2°55.906 129.8   327.9 10.3
2001-11-12 09:01:32 51°13.689 2°55.906 129.8   356.6 10.3
2001-11-12 09:01:37 51°13.689 2°55.907 129.8   22.4 10.4
2001-11-12 09:01:42 51°13.689 2°55.906 130   340.4 10.3
2001-11-12 09:01:47 51°13.689 2°55.906 129.8   292.7 10.2
2001-11-12 09:01:52 51°13.689 2°55.906 130   322.3 10.4
2001-11-12 09:01:58 51°13.689 2°55.906 130   358.5 9.9
2001-11-12 09:02:03 51°13.689 2°55.906 130   316.3 10
2001-11-12 09:02:07 51°13.689 2°55.906 129.8   18.9 10
2001-11-12 09:02:12 51°13.689 2°55.906 129.8   27 9.9
2001-11-12 09:02:17 51°13.689 2°55.906 129.8   41.6 10
2001-11-12 09:02:22 51°13.689 2°55.906 130   31.5 10.4
2001-11-12 09:02:27 51°13.689 2°55.906 130   87.1 10.2
2001-11-12 09:02:32 51°13.689 2°55.906 129.8   73.9 10.2
2001-11-12 09:02:36 51°13.689 2°55.906 129.5   11.4 10.5
2001-11-12 09:02:42 51°13.689 2°55.906 129.2   0.1 10.1
2001-11-12 09:02:47 51°13.689 2°55.906 129.2   346.3 10.2
2001-11-12 09:02:52 51°13.689 2°55.906 129.3   304.6 10.2
2001-11-12 09:02:57 51°13.689 2°55.906 129.7   322.2 10.2
2001-11-12 09:03:02 51°13.689 2°55.906 129.8   350 10.2
2001-11-12 09:03:07 51°13.689 2°55.906 130   300.2 10.3
2001-11-12 09:03:12 51°13.689 2°55.906 130   247.7 10.3
2001-11-12 09:03:17 51°13.689 2°55.906 130.2   338.9 10.3
2001-11-12 09:03:23 51°13.689 2°55.906 130.3   333.7 10.5
2001-11-12 09:03:27 51°13.689 2°55.906 130.7   269.1 10.4
2001-11-12 09:03:32 51°13.689 2°55.906 130.8   311.3 10.3
2001-11-12 09:03:37 51°13.689 2°55.906 130.8   22.7 10.3
2001-11-12 09:03:43 51°13.689 2°55.906 130.5 0.1 67.9 10.2
2001-11-12 09:03:47 51°13.689 2°55.906 129 0.1 77.3 10
2001-11-12 09:03:53 51°13.689 2°55.907 127.2 0.1 106.8 9.7
2001-11-12 09:03:56 51°13.688 2°55.907 124.5 0.1 158.7 9.9
2001-11-12 09:04:02 51°13.688 2°55.906 122.3 0.1 175.3 10.3
2001-11-12 09:04:07 51°13.688 2°55.906 120.7 0.1 199.6 10.4
2001-11-12 09:04:12 51°13.688 2°55.906 119.5 0.1 209.6 10.6
2001-11-12 09:04:17 51°13.688 2°55.906 118.3   213.9 10.5
2001-11-12 09:04:22 51°13.688 2°55.906 117.7   223.9 10.6
2001-11-12 09:04:27 51°13.688 2°55.906 116.8   223.4 10.6
2001-11-12 09:04:32 51°13.688 2°55.906 116.3   232.4 10.7
2001-11-12 09:04:38 51°13.688 2°55.906 116   267.7 10.7
2001-11-12 09:04:43 51°13.688 2°55.906 115.7   241.8 10.7
2001-11-12 09:04:47 51°13.688 2°55.906 115.3   233.8 10.7
2001-11-12 09:04:52 51°13.688 2°55.906 115.2   267 10.7
2001-11-12 09:04:57 51°13.688 2°55.906 114.8   243.3 10.7
2001-11-12 09:05:02 51°13.688 2°55.906 114.3 0.1 208.2 10.8
2001-11-12 09:05:07 51°13.687 2°55.906 113.5 0.1 192.3 10.8
2001-11-12 09:05:12 51°13.687 2°55.905 112.5 0.1 190.5 10.8
2001-11-12 09:05:17 51°13.687 2°55.905 111.3 0.1 189 10.8
2001-11-12 09:05:22 51°13.687 2°55.905 110.2 0.1 188.9 10.8
2001-11-12 09:05:27 51°13.687 2°55.905 108.8 0.1 190.4 10.6
2001-11-12 09:05:32 51°13.687 2°55.905 107.5 0.1 199.7 10.5
2001-11-12 09:05:36 51°13.687 2°55.905 106.2 0.1 203.2 10.7
2001-11-12 09:05:43 51°13.686 2°55.905 104.8 0.1 203.7 10.5
2001-11-12 09:05:48 51°13.686 2°55.905 103.7 0.1 214.5 10.6
2001-11-12 09:05:52 51°13.686 2°55.905 102.5 0.1 226.1 11
2001-11-12 09:05:57 51°13.686 2°55.905 101.2 0.1 221 10.8
2001-11-12 09:06:02 51°13.686 2°55.905 100 0.1 210.5 10.8
2001-11-12 09:06:07 51°13.686 2°55.905 98.8 0.1 197.3 10.9
2001-11-12 09:06:12 51°13.685 2°55.905 97.7 0.1 217.4 11.1
2001-11-12 09:06:17 51°13.685 2°55.904 96.8 0.2 260.4 11.1
2001-11-12 09:06:23 51°13.686 2°55.903 96.2 0.3 282.8 11
2001-11-12 09:06:27 51°13.686 2°55.902 95.3 0.5 287 10.9
2001-11-12 09:06:32 51°13.686 2°55.9 94.5 0.7 285.4 10.8
2001-11-12 09:06:36 51°13.686 2°55.899 93.3 1 282.2 10.9
2001-11-12 09:06:42 51°13.686 2°55.895 92.3 1.4 279.1 11.6
2001-11-12 09:06:47 51°13.687 2°55.891 91.3 1.7 277.3 12.3
2001-11-12 09:06:53 51°13.687 2°55.885 90.2 2 274.3 -999
2001-11-12 09:06:59 51°13.687 2°55.879 88.8 2.3 273.1 -999
2001-11-12 09:07:03 51°13.687 2°55.875 87.8 2.5 271.3 -999
2001-11-12 09:07:08 51°13.687 2°55.868 86.5 2.7 270.5 -999
2001-11-12 09:07:14 51°13.687 2°55.86 85 2.9 269.1 -999
2001-11-12 09:07:19 51°13.687 2°55.854 83.3 3 268.2 -999
2001-11-12 09:07:24 51°13.686 2°55.847 81.7 3 265.8 -999
2001-11-12 09:07:29 51°13.686 2°55.841 80.3 2.9 264.4 -999
2001-11-12 09:07:34 51°13.685 2°55.836 79 2.8 263.2 -999
2001-11-12 09:07:39 51°13.685 2°55.83 77.8 2.7 262.5 -999
2001-11-12 09:07:44 51°13.684 2°55.824 76.7 2.6 261.4 13.2
2001-11-12 09:07:48 51°13.684 2°55.82 75.8 2.5 261 13.2
2001-11-12 09:07:53 51°13.683 2°55.815 74.8 2.4 260.5 13.4
2001-11-12 09:07:58 51°13.683 2°55.81 73.8 2.3 260.1 13.5
2001-11-12 09:08:03 51°13.682 2°55.805 72.7 2.3 259.2 13.5
2001-11-12 09:08:08 51°13.682 2°55.8 71.5 2.2 258 13.6
2001-11-12 09:08:13 51°13.681 2°55.796 70.3 2.1 257 13.6
2001-11-12 09:08:18 51°13.68 2°55.791 69.2 2.1 256.6 13
2001-11-12 09:08:23 51°13.679 2°55.787 67.8 2.1 256.1 13.1
2001-11-12 09:08:28 51°13.678 2°55.783 66.5 2 253.9 13.3
2001-11-12 09:08:33 51°13.677 2°55.779 65.2 1.9 252.3 13.4
2001-11-12 09:08:37 51°13.677 2°55.776 64 1.9 250.2 13.7
2001-11-12 09:08:43 51°13.676 2°55.771 62.7 1.9 249.1 13.9
2001-11-12 09:08:48 51°13.675 2°55.768 61.5 1.8 247.5 13.8
2001-11-12 09:08:53 51°13.674 2°55.764 60.3 1.7 247 13.7
2001-11-12 09:08:58 51°13.673 2°55.761 59 1.7 246.4 13.5
2001-11-12 09:09:03 51°13.672 2°55.758 58.2 1.5 246.4 13.6
2001-11-12 09:09:08 51°13.672 2°55.757 55.7 0.9 250.5 13.5
2001-11-12 09:09:13 51°13.672 2°55.757 51.2 0.5 271.8 13.6
2001-11-12 09:09:19 51°13.674 2°55.758 45.3 0.5 8.5 13.6
2001-11-12 09:09:23 51°13.675 2°55.759 38.8 0.8 21.9 13.5
2001-11-12 09:09:28 51°13.676 2°55.759 33.5 1 20 13.4
2001-11-12 09:09:33 51°13.677 2°55.76 29.2 1 19.8 13.8
2001-11-12 09:09:37 51°13.678 2°55.761 24.7 1.1 16 14
2001-11-12 09:09:43 51°13.68 2°55.761 20.3 1.2 14.7 14.3
2001-11-12 09:09:48 51°13.683 2°55.762 15.8 1.4 7.3 15.2
2001-11-12 09:09:53 51°13.686 2°55.762 10.7 1.8 4.5 16.4
2001-11-12 09:09:58 51°13.689 2°55.762 4 2.2 359.3 16.6
2001-11-12 09:10:03 51°13.692 2°55.761 357.7 2.3 357.9 16.9
2001-11-12 09:10:08 51°13.695 2°55.76 353.7 2.3 351.3 17
2001-11-12 09:10:13 51°13.698 2°55.759 351.3 2.1 349.6 16.7
2001-11-12 09:10:19 51°13.699 2°55.759 349.5 1.5 347.9 16.4
2001-11-12 09:10:23 51°13.699 2°55.758 347.2 1 347.7 16.4
2001-11-12 09:10:28 51°13.7 2°55.758 345.5 0.4 348.5 16.4
2001-11-12 09:10:33 51°13.7 2°55.758 344.5 0.2 343.6 16.4
2001-11-12 09:10:38 51°13.7 2°55.758 344.2 0.2 337 16.4
2001-11-12 09:10:43 51°13.701 2°55.757 344 0.2 337.8 16.4
2001-11-12 09:10:48 51°13.701 2°55.757 344 0.3 326.5 16.4
2001-11-12 09:10:53 51°13.701 2°55.757 343.8 0.3 322.8 16.3
2001-11-12 09:10:59 51°13.702 2°55.756 343.8 0.3 327 16.3
2001-11-12 09:11:03 51°13.702 2°55.756 343.5 0.3 322.2 16.3
2001-11-12 09:11:08 51°13.702 2°55.755 343.3 0.3 321.2 16.3
2001-11-12 09:11:13 51°13.703 2°55.755 343 0.3 317.9 16.2
2001-11-12 09:11:17 51°13.703 2°55.755 342.7 0.3 320.2 16.1
2001-11-12 09:11:23 51°13.703 2°55.754 342.3 0.4 318.3 15.8
2001-11-12 09:11:28 51°13.704 2°55.754 342.2 0.3 320.8 16
2001-11-12 09:11:33 51°13.704 2°55.753 341.8 0.3 319.9 16
2001-11-12 09:11:38 51°13.704 2°55.753 341.7 0.3 322.2 16
2001-11-12 09:11:43 51°13.704 2°55.752 341.5 0.3 320.9 16.1
2001-11-12 09:11:48 51°13.705 2°55.752 341 0.3 321.1 16
2001-11-12 09:11:53 51°13.705 2°55.752 340.7 0.3 320.9 16
2001-11-12 09:11:58 51°13.705 2°55.751 340.2 0.3 322.1 16.1
2001-11-12 09:12:03 51°13.706 2°55.751 339.7 0.3 320 16
2001-11-12 09:12:08 51°13.706 2°55.751 338.8 0.3 319.5 16
2001-11-12 09:12:13 51°13.706 2°55.75 338 0.3 320.3 16
2001-11-12 09:12:18 51°13.707 2°55.75 336.8 0.3 319.9 16.1
2001-11-12 09:12:23 51°13.707 2°55.749 335.8 0.3 319.5 16.2
2001-11-12 09:12:28 51°13.707 2°55.749 334.7 0.3 317.9 16.2
2001-11-12 09:12:33 51°13.707 2°55.748 333.3 0.3 319.8 16.1
2001-11-12 09:12:38 51°13.708 2°55.748 332.2 0.3 318.1 16
2001-11-12 09:12:43 51°13.708 2°55.747 331.2 0.3 318 15.9
2001-11-12 09:12:48 51°13.708 2°55.746 330 0.4 300.6 15.9
2001-11-12 09:12:53 51°13.709 2°55.746 329.5 0.4 313.1 15.8
2001-11-12 09:12:58 51°13.709 2°55.745 328.2 0.4 307.9 15.9
2001-11-12 09:13:03 51°13.71 2°55.745 327.7 0.4 316.8 15.9
2001-11-12 09:13:08 51°13.71 2°55.744 326.5 0.5 311.5 15.7
2001-11-12 09:13:13 51°13.711 2°55.743 326 0.5 320.5 15.5
2001-11-12 09:13:18 51°13.711 2°55.742 325.3 0.5 314 15.4
2001-11-12 09:13:23 51°13.712 2°55.741 325.3 0.6 316.7 15.4
2001-11-12 09:13:28 51°13.712 2°55.74 325 0.7 312.7 15.3
2001-11-12 09:13:33 51°13.713 2°55.739 325.3 0.8 317 15.3
2001-11-12 09:13:38 51°13.714 2°55.737 325.5 0.9 315.7 15
2001-11-12 09:13:43 51°13.715 2°55.736 326.2 1 319.5 14.8
2001-11-12 09:13:48 51°13.716 2°55.734 326.8 1.1 318.5 14.6
2001-11-12 09:13:53 51°13.718 2°55.732 327.8 1.3 320.5 14.3
2001-11-12 09:13:58 51°13.719 2°55.73 328.8 1.4 321.4 14.2
2001-11-12 09:14:03 51°13.721 2°55.728 330 1.5 323.4 13.6
2001-11-12 09:14:08 51°13.724 2°55.725 331.3 1.9 324.3 13.6
2001-11-12 09:14:13 51°13.726 2°55.722 332.5 2.2 325.9 13.3
2001-11-12 09:14:18 51°13.73 2°55.718 333.2 2.8 327.4 13
2001-11-12 09:14:23 51°13.734 2°55.714 333.7 3.2 328.3 13.5
2001-11-12 09:14:28 51°13.739 2°55.709 334.2 3.8 329.2 13.3
2001-11-12 09:14:33 51°13.745 2°55.705 334 4.2 329.6 13.4
2001-11-12 09:14:38 51°13.751 2°55.699 334.2 4.7 330 13.2
2001-11-12 09:14:43 51°13.758 2°55.694 334.7 5 330.4 13.1
2001-11-12 09:14:48 51°13.765 2°55.687 335.7 5.6 331.1 13.1
2001-11-12 09:14:53 51°13.773 2°55.681 336.3 6 331.7 13.3
2001-11-12 09:14:57 51°13.779 2°55.675 336.5 6.6 332.1 13
2001-11-12 09:15:03 51°13.79 2°55.667 337.3 6.8 332.7 13.2
2001-11-12 09:15:08 51°13.799 2°55.659 338.2 7.4 333.5 13.1
2001-11-12 09:15:13 51°13.809 2°55.652 338.3 7.6 334.2 13.2
2001-11-12 09:15:18 51°13.819 2°55.644 338 8 334.4 13.3
2001-11-12 09:15:23 51°13.83 2°55.636 338.3 8.1 334.5 13
2001-11-12 09:15:28 51°13.84 2°55.629 338.8 8.4 334.9 13
2001-11-12 09:15:33 51°13.851 2°55.62 338.7 8.6 335.1 12.9
2001-11-12 09:15:37 51°13.86 2°55.614 339.2 8.7 335 12.6
2001-11-12 09:15:43 51°13.873 2°55.604 340.3 8.8 335.5 13.1
2001-11-12 09:15:48 51°13.885 2°55.597 340.3 8.8 336.4 13
2001-11-12 09:15:53 51°13.896 2°55.589 340.2 8.8 336.7 12.9
2001-11-12 09:15:59 51°13.909 2°55.58 340.5 8.8 336.7 13.1
2001-11-12 09:16:03 51°13.918 2°55.573 340 8.8 336.7 13.1
2001-11-12 09:16:08 51°13.929 2°55.566 340 8.8 336.3 13
2001-11-12 09:16:13 51°13.94 2°55.558 340.5 8.7 336.6 13
2001-11-12 09:16:17 51°13.949 2°55.552 340.3 8.7 336.8 12.9
2001-11-12 09:16:23 51°13.962 2°55.543 339.5 8.6 336.8 12.8
2001-11-12 09:16:28 51°13.972 2°55.535 339.5 8.6 336.1 12.9
2001-11-12 09:16:33 51°13.983 2°55.527 339.5 8.6 335.7 12.9
2001-11-12 09:16:38 51°13.994 2°55.519 339 8.6 335.4 12.9
2001-11-12 09:16:43 51°14.005 2°55.511 338.5 8.6 335.3 12.9
2001-11-12 09:16:48 51°14.015 2°55.503 338.2 8.5 334.8 12.8
2001-11-12 09:16:53 51°14.026 2°55.495 338.5 8.5 334.9 12.8
2001-11-12 09:16:58 51°14.037 2°55.487 339 8.5 335.2 12.7
2001-11-12 09:17:03 51°14.047 2°55.479 339 8.5 335.3 12.5
2001-11-12 09:17:08 51°14.058 2°55.471 338.5 8.5 335.1 12.7
2001-11-12 09:17:13 51°14.068 2°55.463 338.2 8.5 334.8 12.6
2001-11-12 09:17:17 51°14.077 2°55.457 338.5 8.4 334.8 12.7
2001-11-12 09:17:23 51°14.089 2°55.447 337.8 8.4 334.5 12.7
2001-11-12 09:17:28 51°14.1 2°55.439 337.3 8.4 333.9 12.7
2001-11-12 09:17:33 51°14.11 2°55.43 336.3 8.4 333.2 12.6
2001-11-12 09:17:38 51°14.121 2°55.422 335.5 8.4 332.3 12.7
2001-11-12 09:17:43 51°14.13 2°55.412 334.3 8.4 331.2 12.7
2001-11-12 09:17:48 51°14.141 2°55.403 334 8.4 330.7 12.5
2001-11-12 09:17:53 51°14.15 2°55.394 333.5 8.4 330.2 12.7
2001-11-12 09:17:58 51°14.16 2°55.385 332.7 8.3 329.8 12.7
2001-11-12 09:18:03 51°14.17 2°55.375 331.3 8.3 328.7 12.7
2001-11-12 09:18:08 51°14.18 2°55.364 329.8 8.3 327.9 12.7
2001-11-12 09:18:13 51°14.189 2°55.354 328.3 8.3 326 12.7
2001-11-12 09:18:18 51°14.199 2°55.343 327.5 8.3 325.1 12.5
2001-11-12 09:18:23 51°14.208 2°55.332 327 8.3 324 12.5
2001-11-12 09:18:28 51°14.217 2°55.321 326.2 8.4 322.9 12.7
2001-11-12 09:18:33 51°14.226 2°55.309 325 8.4 322.1 12.6
2001-11-12 09:18:38 51°14.235 2°55.297 323.3 8.3 321.2 12.6
2001-11-12 09:18:43 51°14.243 2°55.285 321.3 8.3 319.9 12.6
2001-11-12 09:18:48 51°14.252 2°55.272 319.7 8.4 317.3 12.6
2001-11-12 09:18:53 51°14.26 2°55.259 318.8 8.4 316.2 12.7
2001-11-12 09:18:58 51°14.268 2°55.246 318.3 8.4 315.4 12.8
2001-11-12 09:19:03 51°14.276 2°55.233 317.5 8.4 315.1 12.7
2001-11-12 09:19:08 51°14.285 2°55.219 316.7 8.4 314.1 12.8
2001-11-12 09:19:12 51°14.291 2°55.208 316.2 8.5 313.8 12.8
2001-11-12 09:19:17 51°14.299 2°55.194 316 8.5 313.2 12.8
2001-11-12 09:19:23 51°14.308 2°55.178 315.5 8.5 313 12.9
2001-11-12 09:19:28 51°14.316 2°55.164 314.2 8.4 312 12.9
2001-11-12 09:19:33 51°14.323 2°55.149 312.8 8.4 310.8 12.9
2001-11-12 09:19:38 51°14.331 2°55.135 312.3 8.4 309.7 12.9
2001-11-12 09:19:43 51°14.338 2°55.12 311.7 8.5 309.2 12.9
2001-11-12 09:19:48 51°14.345 2°55.106 311.8 8.4 308.6 13
2001-11-12 09:19:53 51°14.352 2°55.091 311.3 8.4 308.4 13.1
2001-11-12 09:19:57 51°14.358 2°55.079 310.5 8.4 308.2 13.3
2001-11-12 09:20:03 51°14.367 2°55.062 310.2 8.4 308.1 13.1
2001-11-12 09:20:08 51°14.375 2°55.048 311.3 8.5 309.7 13.1
2001-11-12 09:20:13 51°14.382 2°55.034 312.8 8.4 311.9 13.1
2001-11-12 09:20:18 51°14.391 2°55.022 315 8.4 315.7 13.1
2001-11-12 09:20:23 51°14.401 2°55.011 317.3 8.5 319.3 13.1
2001-11-12 09:20:27 51°14.409 2°55.003 321.3 8.6 325.2 12.9
2001-11-12 09:20:32 51°14.42 2°54.994 325 8.8 330.9 12.9
2001-11-12 09:20:37 51°14.432 2°54.987 327.7 8.8 334.8 12.9
2001-11-12 09:20:42 51°14.443 2°54.979 328.7 9 336.9 12.8
2001-11-12 09:20:48 51°14.458 2°54.97 328.8 9.1 337.8 12.9
2001-11-12 09:20:53 51°14.47 2°54.962 328.3 9.3 337.9 12.6
2001-11-12 09:20:57 51°14.479 2°54.955 327.8 9.4 337.6 12.6
2001-11-12 09:21:03 51°14.494 2°54.945 327.2 9.5 336.4 12.4
2001-11-12 09:21:08 51°14.506 2°54.935 325.8 9.7 335 12.6
2001-11-12 09:21:13 51°14.518 2°54.925 325.3 9.9 334.1 12.7
2001-11-12 09:21:17 51°14.529 2°54.917 325 10 333.6 12.3
2001-11-12 09:21:23 51°14.544 2°54.904 324.5 10.2 332.8 12.3
2001-11-12 09:21:28 51°14.556 2°54.893 324 10.4 331.9 12.3
2001-11-12 09:21:32 51°14.567 2°54.884 323.5 10.6 331.1 12.5
2001-11-12 09:21:37 51°14.579 2°54.872 322.3 10.7 330 12.4
2001-11-12 09:21:43 51°14.595 2°54.857 322 10.8 329.3 12.4
2001-11-12 09:21:48 51°14.608 2°54.844 322.3 11 329.2 12.3
2001-11-12 09:21:53 51°14.622 2°54.832 322.5 11.1 329.4 12.3
2001-11-12 09:21:58 51°14.635 2°54.82 323.3 11.2 330.1 12.4
2001-11-12 09:22:03 51°14.649 2°54.807 323.3 11.2 330.3 12.3
2001-11-12 09:22:08 51°14.662 2°54.795 323.2 11.3 329.9 12.3
2001-11-12 09:22:12 51°14.673 2°54.785 322.8 11.3 329.4 12.3
2001-11-12 09:22:17 51°14.686 2°54.771 321.7 11.3 328.9 12.3
2001-11-12 09:22:23 51°14.702 2°54.755 320.5 11.2 327.6 12.3
2001-11-12 09:22:28 51°14.714 2°54.742 320 11.2 326.7 12.3
2001-11-12 09:22:33 51°14.728 2°54.728 319.7 11.2 326.6 12.2
2001-11-12 09:22:38 51°14.741 2°54.715 320.3 11.2 326.7 12.2
2001-11-12 09:22:43 51°14.754 2°54.702 322.3 11.3 327.3 12.2
2001-11-12 09:22:48 51°14.769 2°54.689 325.2 11.6 330.3 12.2
2001-11-12 09:22:53 51°14.783 2°54.678 326.7 11.7 331.9 12.3
2001-11-12 09:22:57 51°14.795 2°54.668 326.8 11.8 332.9 12.3
2001-11-12 09:23:03 51°14.812 2°54.653 326.2 11.8 332.8 12.3
2001-11-12 09:23:08 51°14.827 2°54.641 326.3 11.9 332.4 12
2001-11-12 09:23:13 51°14.842 2°54.629 326.5 12 332.5 12.3
2001-11-12 09:23:18 51°14.857 2°54.617 326.5 12 332.4 12.3
2001-11-12 09:23:23 51°14.871 2°54.604 325.7 12.1 332 12.3
2001-11-12 09:23:28 51°14.886 2°54.591 324.5 12.1 331.5 12.2
2001-11-12 09:23:32 51°14.897 2°54.58 323.2 12.1 330.3 11.8
2001-11-12 09:23:37 51°14.912 2°54.566 322.7 12 329.1 12
2001-11-12 09:23:43 51°14.928 2°54.549 322.5 11.9 328.6 12
2001-11-12 09:23:48 51°14.943 2°54.535 321.8 11.9 328.5 11.8
2001-11-12 09:23:53 51°14.957 2°54.522 322.5 12 328.4 11.7
2001-11-12 09:23:57 51°14.968 2°54.511 323.8 12 329.1 11.6
2001-11-12 09:24:03 51°14.986 2°54.495 325.2 12.1 330.1 11.4
2001-11-12 09:24:08 51°15 2°54.483 325 12.1 330.9 11.4
2001-11-12 09:24:13 51°15.015 2°54.469 325.2 12.1 330.5 11.3
2001-11-12 09:24:17 51°15.027 2°54.459 325.8 12.1 330.7 11.3
2001-11-12 09:24:23 51°15.044 2°54.443 325.5 12.1 330.4 11.3
2001-11-12 09:24:28 51°15.059 2°54.429 324.7 12.2 329.9 11.3
2001-11-12 09:24:33 51°15.074 2°54.415 324.2 12.3 329.6 11.3
2001-11-12 09:24:38 51°15.089 2°54.401 324 12.5 329.5 11.4
2001-11-12 09:24:43 51°15.104 2°54.388 326 12.5 330.3 11.4
2001-11-12 09:24:47 51°15.117 2°54.378 329.7 12.6 332.6 11.5
2001-11-12 09:24:52 51°15.133 2°54.368 334.3 12.7 336.2 11.5
2001-11-12 09:24:58 51°15.153 2°54.359 339.2 12.6 339.5 11.6
2001-11-12 09:25:03 51°15.171 2°54.352 341.7 12.7 344.1 11.6
2001-11-12 09:25:08 51°15.188 2°54.345 342.7 12.7 345.6 11.5
2001-11-12 09:25:13 51°15.205 2°54.338 342 12.9 346 11.7
2001-11-12 09:25:17 51°15.219 2°54.332 341.5 13 345.3 11.7
2001-11-12 09:25:23 51°15.24 2°54.323 340.8 13 345 11.8
2001-11-12 09:25:28 51°15.258 2°54.315 342 13.1 344.9 11.9
2001-11-12 09:25:33 51°15.275 2°54.308 343 13.1 345.8 12
2001-11-12 09:25:37 51°15.289 2°54.302 342.3 13.2 345.9 12
2001-11-12 09:25:43 51°15.311 2°54.294 342.5 13.3 345.8 12.1
2001-11-12 09:25:48 51°15.329 2°54.286 342.3 13.3 345.5 12.1
2001-11-12 09:25:53 51°15.347 2°54.279 341.7 13.3 345.3 12.2
2001-11-12 09:25:57 51°15.361 2°54.272 340.3 13.4 344.4 12.2
2001-11-12 09:26:03 51°15.383 2°54.262 340.2 13.5 344.1 12.2
2001-11-12 09:26:08 51°15.401 2°54.254 341.8 13.7 344.2 12.4
2001-11-12 09:26:12 51°15.416 2°54.248 343.2 13.8 345.4 12.4
2001-11-12 09:26:17 51°15.434 2°54.24 341.7 13.8 345 12.5
2001-11-12 09:26:23 51°15.455 2°54.231 340.5 13.3 344.5 12.5
2001-11-12 09:26:28 51°15.47 2°54.224 339 12.2 344.1 12.6
2001-11-12 09:26:33 51°15.484 2°54.216 337.5 11.4 343.6 12.7
2001-11-12 09:26:38 51°15.497 2°54.21 335.7 10.2 342.9 12.8
2001-11-12 09:26:43 51°15.509 2°54.204 333.5 9.5 342.4 12.9
2001-11-12 09:26:47 51°15.518 2°54.199 331.5 9 341.4 12.9
2001-11-12 09:26:53 51°15.53 2°54.191 328.7 8.2 339.5 13
2001-11-12 09:26:58 51°15.539 2°54.185 326.3 7.6 337.8 13.1
2001-11-12 09:27:03 51°15.548 2°54.179 324.3 7.2 337.2 13.2
2001-11-12 09:27:08 51°15.556 2°54.173 322.7 6.6 336.7 13.1
2001-11-12 09:27:13 51°15.564 2°54.168 321.3 6.3 336.2 13.2
2001-11-12 09:27:18 51°15.571 2°54.162 319.5 6 335.2 13.2
2001-11-12 09:27:23 51°15.578 2°54.157 318.5 5.7 335 13.3
2001-11-12 09:27:28 51°15.584 2°54.152 317.2 5.4 335 13.3
2001-11-12 09:27:33 51°15.59 2°54.147 316.2 5.1 334.6 13.3
2001-11-12 09:27:38 51°15.597 2°54.142 315.2 5 334.1 13.3
2001-11-12 09:27:43 51°15.603 2°54.137 314.5 5.1 333.3 13.4
2001-11-12 09:27:48 51°15.61 2°54.13 314.5 5.6 330.9 13.4
2001-11-12 09:27:53 51°15.618 2°54.122 315.2 6.2 329.1 13.4
2001-11-12 09:27:58 51°15.627 2°54.113 315.8 6.7 327.6 13.4
2001-11-12 09:28:03 51°15.636 2°54.103 315.5 7.6 325.9 13.4
2001-11-12 09:28:08 51°15.645 2°54.091 314.5 8.1 324.2 13.3
2001-11-12 09:28:13 51°15.656 2°54.078 313.3 8.9 322 13.5
2001-11-12 09:28:17 51°15.664 2°54.066 313 9.4 320.7 13.5
2001-11-12 09:28:23 51°15.678 2°54.048 314.7 10.1 319.7 13.5
2001-11-12 09:28:28 51°15.691 2°54.034 318.7 10.7 321.4 13.5
2001-11-12 09:28:33 51°15.705 2°54.02 322 11.5 324.7 13.5
2001-11-12 09:28:37 51°15.716 2°54.008 322.7 11.9 326.5 13.6
2001-11-12 09:28:43 51°15.733 2°53.989 321.5 12.3 326.4 13.7
2001-11-12 09:28:48 51°15.747 2°53.973 321.2 12.5 325.6 13.8
2001-11-12 09:28:53 51°15.762 2°53.957 321.5 12.7 325.3 13.8
2001-11-12 09:28:58 51°15.777 2°53.941 321.5 12.8 325.3 13.9
2001-11-12 09:29:03 51°15.792 2°53.925 322.2 12.9 325.7 13.9
2001-11-12 09:29:08 51°15.807 2°53.91 322.7 13 326.6 14
2001-11-12 09:29:13 51°15.822 2°53.893 322.5 13.1 326.4 13.9
2001-11-12 09:29:17 51°15.834 2°53.88 322.8 13.2 326.6 14
2001-11-12 09:29:23 51°15.853 2°53.861 323.2 13.2 326.7 14.1
2001-11-12 09:29:28 51°15.868 2°53.846 323.5 13.3 327.1 14.2
2001-11-12 09:29:33 51°15.884 2°53.83 323.7 13.3 327.1 14.3
2001-11-12 09:29:37 51°15.896 2°53.817 321.8 13.3 326.9 14.2
2001-11-12 09:29:42 51°15.911 2°53.799 320.8 13.2 325.3 14.1
2001-11-12 09:29:48 51°15.929 2°53.779 320.8 13.1 324.8 14.3
2001-11-12 09:29:53 51°15.944 2°53.763 321.3 13.2 325 14.3
2001-11-12 09:29:58 51°15.959 2°53.747 322.5 13.3 326.1 14.4
2001-11-12 09:30:03 51°15.975 2°53.732 324.5 13.3 327.4 14.4
2001-11-12 09:30:08 51°15.991 2°53.717 326.8 13.3 329.7 14.5
2001-11-12 09:30:13 51°16.007 2°53.703 327.8 13.4 331.1 14.6
2001-11-12 09:30:18 51°16.024 2°53.689 327.5 13.4 331.1 14.6
2001-11-12 09:30:22 51°16.037 2°53.677 327.2 13.4 331 14.6
2001-11-12 09:30:28 51°16.056 2°53.66 326.2 13.4 330.5 14.7
2001-11-12 09:30:33 51°16.072 2°53.645 326 13.3 329.9 14.7
2001-11-12 09:30:38 51°16.087 2°53.63 325 13.3 329.4 14.7
2001-11-12 09:30:43 51°16.103 2°53.614 324.3 13.2 328.8 14.8
2001-11-12 09:30:48 51°16.119 2°53.599 324 13.1 328.2 14.7
2001-11-12 09:30:53 51°16.134 2°53.583 323.7 13.2 328.1 14.7
2001-11-12 09:30:58 51°16.15 2°53.568 324.3 13.3 328.2 14.8
2001-11-12 09:31:03 51°16.166 2°53.553 324.2 13.3 328.6 14.8
2001-11-12 09:31:08 51°16.182 2°53.537 324.2 13.3 328.4 14.9
2001-11-12 09:31:13 51°16.197 2°53.522 324.5 13.3 328.8 14.9
2001-11-12 09:31:17 51°16.21 2°53.511 325.3 13.2 329.1 14.9
2001-11-12 09:31:23 51°16.229 2°53.493 325.8 13.2 329.8 14.8
2001-11-12 09:31:28 51°16.245 2°53.478 325.3 13.3 330 14.9
2001-11-12 09:31:32 51°16.257 2°53.466 324 13.2 329.2 15
2001-11-12 09:31:38 51°16.276 2°53.447 323.3 13.2 328.7 15
2001-11-12 09:31:43 51°16.292 2°53.432 324.8 13.3 328.4 15
2001-11-12 09:31:48 51°16.309 2°53.418 326.2 13.4 330.3 15.1
2001-11-12 09:31:53 51°16.325 2°53.403 326.3 13.3 330.7 15.1
2001-11-12 09:31:58 51°16.341 2°53.389 325.7 13.3 330.8 15
2001-11-12 09:32:03 51°16.357 2°53.374 324.8 13.3 330.3 15.1
2001-11-12 09:32:08 51°16.372 2°53.359 323.8 13.2 329.2 15.1
2001-11-12 09:32:13 51°16.388 2°53.342 322.5 13.2 327.8 15
2001-11-12 09:32:18 51°16.403 2°53.326 321.2 13.2 326.5 15.2
2001-11-12 09:32:23 51°16.418 2°53.31 321.2 13.2 326 15.2
2001-11-12 09:32:28 51°16.434 2°53.295 322.8 13.2 327.1 15.1
2001-11-12 09:32:32 51°16.446 2°53.282 323.7 13.3 328.1 15.1
2001-11-12 09:32:37 51°16.462 2°53.267 324 13.3 328.5 15.1
2001-11-12 09:32:43 51°16.481 2°53.249 323.7 13.3 328.8 15
2001-11-12 09:32:48 51°16.497 2°53.234 324.3 13.3 328.9 15
2001-11-12 09:32:53 51°16.512 2°53.219 325 13.3 329.3 14.9
2001-11-12 09:32:58 51°16.529 2°53.204 324.7 13.4 329.7 14.9
2001-11-12 09:33:03 51°16.545 2°53.189 324.2 13.4 329.6 14.8
2001-11-12 09:33:08 51°16.561 2°53.174 325.2 13.4 329.7 14.7
2001-11-12 09:33:13 51°16.577 2°53.16 327 13.4 331 14.7
2001-11-12 09:33:17 51°16.59 2°53.148 326.5 13.5 331.5 14.6
2001-11-12 09:33:23 51°16.61 2°53.131 326.2 13.5 331.4 14.4
2001-11-12 09:33:28 51°16.626 2°53.117 325.5 13.4 330.7 14.3
2001-11-12 09:33:33 51°16.642 2°53.102 326.2 13.4 330.6 14.4
2001-11-12 09:33:38 51°16.659 2°53.088 327.3 13.4 331.1 14.4
2001-11-12 09:33:42 51°16.672 2°53.077 327.7 13.4 332 14.3
2001-11-12 09:33:48 51°16.692 2°53.06 326.8 13.5 331.9 14
2001-11-12 09:33:53 51°16.708 2°53.045 325.7 13.5 331.1 14
2001-11-12 09:33:58 51°16.724 2°53.03 324.3 13.4 329.9 14
2001-11-12 09:34:03 51°16.74 2°53.015 325 13.4 329.5 14
2001-11-12 09:34:08 51°16.756 2°53.001 326.2 13.4 330.3 13.6
2001-11-12 09:34:12 51°16.769 2°52.989 325.5 13.4 330.5 13.5
2001-11-12 09:34:17 51°16.785 2°52.974 324.8 13.4 330 13.2
2001-11-12 09:34:23 51°16.804 2°52.956 325.2 13.3 329.2 12.6
2001-11-12 09:34:28 51°16.819 2°52.94 324.5 13.3 328.8 12
2001-11-12 09:34:33 51°16.835 2°52.924 323.3 13.3 327.9 11.6
2001-11-12 09:34:38 51°16.85 2°52.908 322.3 13.3 326.8 11.5
2001-11-12 09:34:43 51°16.865 2°52.891 321.8 13.2 325.5 11.7
2001-11-12 09:34:48 51°16.88 2°52.874 322.7 13.2 325.3 11.7
2001-11-12 09:34:52 51°16.893 2°52.861 323.7 13.3 325.7 12
2001-11-12 09:34:58 51°16.911 2°52.842 325.2 13.4 326.6 12.2
2001-11-12 09:35:03 51°16.927 2°52.826 325.5 13.4 327.5 12.3
2001-11-12 09:35:08 51°16.943 2°52.81 324.3 13.5 327.1 12.3
2001-11-12 09:35:13 51°16.958 2°52.793 323.7 13.4 326.8 12.5
2001-11-12 09:35:18 51°16.974 2°52.776 322.5 13.4 325.6 12.5
2001-11-12 09:35:23 51°16.989 2°52.76 323 13.5 325.7 12.5
2001-11-12 09:35:28 51°17.005 2°52.743 324.3 13.5 326.1 12.6
2001-11-12 09:35:32 51°17.018 2°52.731 325.2 13.6 327.3 12.9
2001-11-12 09:35:37 51°17.033 2°52.714 324.3 13.5 327.4 13
2001-11-12 09:35:43 51°17.052 2°52.694 323.7 13.5 326.9 13.1
2001-11-12 09:35:48 51°17.067 2°52.677 322 13.5 326 13
2001-11-12 09:35:53 51°17.082 2°52.659 320.7 13.5 324.1 12.7
2001-11-12 09:35:57 51°17.094 2°52.645 319.2 13.5 323.1 12.4
2001-11-12 09:36:03 51°17.111 2°52.622 318 13.4 321.4 12.3
2001-11-12 09:36:08 51°17.125 2°52.603 317.2 13.4 320.4 12.3
2001-11-12 09:36:13 51°17.139 2°52.584 316.8 13.3 319.6 12.4
2001-11-12 09:36:17 51°17.151 2°52.569 316.5 13.3 319.3 12.5
2001-11-12 09:36:23 51°17.168 2°52.545 317 13.3 319.5 12.6
2001-11-12 09:36:28 51°17.182 2°52.527 317 13.4 319.8 12.7
2001-11-12 09:36:33 51°17.196 2°52.508 317.3 13.4 320.2 12.7
2001-11-12 09:36:37 51°17.208 2°52.493 317.7 13.4 320.6 12.8
2001-11-12 09:36:43 51°17.225 2°52.471 318.3 13.4 320.9 12.9
2001-11-12 09:36:48 51°17.24 2°52.453 319.2 13.4 321.8 12.9
2001-11-12 09:36:53 51°17.255 2°52.435 319.7 13.4 322.3 13
2001-11-12 09:36:57 51°17.267 2°52.421 320.8 13.4 323.4 13
2001-11-12 09:37:03 51°17.285 2°52.4 321.3 13.4 323.8 13
2001-11-12 09:37:08 51°17.3 2°52.383 322.7 13.4 325 13.1
2001-11-12 09:37:13 51°17.316 2°52.367 323.3 13.4 325.8 13.2
2001-11-12 09:37:18 51°17.332 2°52.351 324 13.5 326.6 13.2
2001-11-12 09:37:23 51°17.347 2°52.335 324.5 13.5 327.5 13.2
2001-11-12 09:37:28 51°17.363 2°52.319 324.7 13.5 327.8 13.3
2001-11-12 09:37:32 51°17.376 2°52.306 324.7 13.5 327.8 13.3
2001-11-12 09:37:38 51°17.395 2°52.287 324.2 13.5 327.4 13.2
2001-11-12 09:37:43 51°17.411 2°52.271 324.2 13.5 327.2 13.3
2001-11-12 09:37:48 51°17.427 2°52.254 323.7 13.5 327.2 13.3
2001-11-12 09:37:53 51°17.442 2°52.238 323.5 13.5 327 13.3
2001-11-12 09:37:57 51°17.454 2°52.225 323.2 13.4 326.8 13.3
2001-11-12 09:38:03 51°17.473 2°52.205 323.2 13.4 326.8 13.3
2001-11-12 09:38:08 51°17.489 2°52.189 323.2 13.5 326.5 13.2
2001-11-12 09:38:13 51°17.504 2°52.172 322.5 13.5 326 13.3
2001-11-12 09:38:18 51°17.519 2°52.155 321.7 13.5 324.9 13.3
2001-11-12 09:38:23 51°17.534 2°52.137 320.8 13.4 324.3 13.4
2001-11-12 09:38:28 51°17.549 2°52.119 319.7 13.4 323.5 13.4
2001-11-12 09:38:33 51°17.564 2°52.101 319.3 13.3 322.6 13.3
2001-11-12 09:38:38 51°17.578 2°52.082 318.5 13.4 322 13.3
2001-11-12 09:38:43 51°17.593 2°52.064 318 13.4 321.7 13.3
2001-11-12 09:38:48 51°17.608 2°52.046 318.3 13.4 321.5 13.3
2001-11-12 09:38:53 51°17.622 2°52.028 319.5 13.5 322.1 13.3
2001-11-12 09:38:58 51°17.638 2°52.01 321 13.4 323.6 13.3
2001-11-12 09:39:02 51°17.65 2°51.997 322.2 13.4 324.7 13.2
2001-11-12 09:39:08 51°17.669 2°51.978 324.5 13.5 326.3 13.2
2001-11-12 09:39:13 51°17.685 2°51.962 325.5 13.5 327.8 13.2
2001-11-12 09:39:17 51°17.698 2°51.949 325.2 13.5 328.1 13.2
2001-11-12 09:39:23 51°17.716 2°51.93 324.2 13.5 327.6 13.2
2001-11-12 09:39:28 51°17.732 2°51.913 323 13.5 326.3 13.1
2001-11-12 09:39:33 51°17.747 2°51.896 322.3 13.5 325.6 13.2
2001-11-12 09:39:38 51°17.762 2°51.878 322 13.5 324.9 13.2
2001-11-12 09:39:42 51°17.775 2°51.864 321.2 13.5 324.3 13.1
2001-11-12 09:39:48 51°17.793 2°51.844 321.8 13.5 324.4 13.2
2001-11-12 09:39:53 51°17.808 2°51.827 322.7 13.5 325 13.1
2001-11-12 09:39:58 51°17.824 2°51.81 324.2 13.5 326 13
2001-11-12 09:40:02 51°17.837 2°51.798 326 13.6 327.3 13.1
2001-11-12 09:40:07 51°17.853 2°51.782 326.2 13.6 328.4 13.2
2001-11-12 09:40:13 51°17.872 2°51.762 324.8 13.6 328 13.2
2001-11-12 09:40:17 51°17.885 2°51.75 323.8 13.6 327.1 13.2
2001-11-12 09:40:23 51°17.903 2°51.729 323 13.5 326.1 13.3
2001-11-12 09:40:28 51°17.919 2°51.713 323.8 13.5 326.2 13.3
2001-11-12 09:40:33 51°17.934 2°51.697 324.8 13.5 327 13.3
2001-11-12 09:40:38 51°17.951 2°51.682 326.5 13.5 328.7 13.3
2001-11-12 09:40:43 51°17.967 2°51.667 327.5 13.5 329.5 13.4
2001-11-12 09:40:48 51°17.983 2°51.652 327.3 13.5 330 13.5
2001-11-12 09:40:53 51°18 2°51.636 326.2 13.6 329.4 13.6
2001-11-12 09:40:57 51°18.012 2°51.623 325.3 13.5 328.4 13.6
2001-11-12 09:41:03 51°18.031 2°51.603 324 13.5 327.4 13.6
2001-11-12 09:41:08 51°18.046 2°51.586 322.7 13.5 325.9 13.8
2001-11-12 09:41:13 51°18.061 2°51.569 321 13.4 324.9 13.9
2001-11-12 09:41:18 51°18.076 2°51.552 320.3 13.4 324.1 14
2001-11-12 09:41:23 51°18.091 2°51.535 321.5 13.4 324.3 14.1
2001-11-12 09:41:28 51°18.107 2°51.518 322.8 13.4 325.7 14.2
2001-11-12 09:41:33 51°18.123 2°51.503 324.2 13.4 326.6 14.3
2001-11-12 09:41:38 51°18.139 2°51.487 325 13.5 328.2 14.4
2001-11-12 09:41:43 51°18.155 2°51.472 325.3 13.5 328.6 14.5
2001-11-12 09:41:48 51°18.171 2°51.456 325 13.5 328.9 14.5
2001-11-12 09:41:53 51°18.187 2°51.441 325.3 13.6 329.1 14.7
2001-11-12 09:41:57 51°18.2 2°51.429 325.7 13.6 329.7 14.8
2001-11-12 09:42:03 51°18.221 2°51.413 329.3 13.6 331.5 14.9
2001-11-12 09:42:08 51°18.239 2°51.402 333.8 13.6 334.5 15
2001-11-12 09:42:13 51°18.257 2°51.393 339.5 13.8 340.1 15.1
2001-11-12 09:42:18 51°18.276 2°51.387 344.7 13.9 345.4 15.2
2001-11-12 09:42:23 51°18.296 2°51.385 350.3 14 350.4 15.3
2001-11-12 09:42:28 51°18.315 2°51.384 355.5 14.1 355 15.3
2001-11-12 09:42:33 51°18.336 2°51.387 0.7 14.2 0.6 15.4
2001-11-12 09:42:37 51°18.351 2°51.39 6.7 14.4 5.5 15.4
2001-11-12 09:42:43 51°18.374 2°51.398 10 14.4 8.1 15.6
2001-11-12 09:42:48 51°18.394 2°51.405 11.5 14.6 11.9 15.7
2001-11-12 09:42:53 51°18.414 2°51.414 13.3 14.8 13.5 15.8
2001-11-12 09:42:57 51°18.43 2°51.422 16.3 14.9 16.1 15.8
2001-11-12 09:43:03 51°18.454 2°51.435 18.3 14.9 17.9 15.8
2001-11-12 09:43:08 51°18.473 2°51.447 20.3 15 20 16
2001-11-12 09:43:13 51°18.492 2°51.459 22.3 15 21.8 16.1
2001-11-12 09:43:18 51°18.511 2°51.474 24.8 15 23.7 16
2001-11-12 09:43:23 51°18.53 2°51.489 26.7 15.1 25.9 16.2
2001-11-12 09:43:28 51°18.549 2°51.504 27.2 15.1 26.6 16.2
2001-11-12 09:43:32 51°18.564 2°51.516 27.3 15.1 26.9 16.2
2001-11-12 09:43:37 51°18.583 2°51.531 26.2 15.2 26.3 16.3
2001-11-12 09:43:43 51°18.606 2°51.548 25.8 15.2 25.7 16.4
2001-11-12 09:43:47 51°18.621 2°51.559 24 15.2 24.9 16.4
2001-11-12 09:43:53 51°18.644 2°51.575 24 15.2 23.9 16.3
2001-11-12 09:43:58 51°18.663 2°51.588 22.2 15.2 22.7 16.4
2001-11-12 09:44:03 51°18.683 2°51.599 20.7 15.1 21.5 16.5
2001-11-12 09:44:08 51°18.703 2°51.61 19.5 15.1 20.3 16.5
2001-11-12 09:44:13 51°18.723 2°51.62 17.7 15.1 18.7 16.6
2001-11-12 09:44:17 51°18.739 2°51.628 15.5 15.1 16.9 16.7
2001-11-12 09:44:23 51°18.762 2°51.637 13.5 15 15.5 16.8
2001-11-12 09:44:28 51°18.783 2°51.645 12 15 14.1 16.8
2001-11-12 09:44:33 51°18.803 2°51.651 10.5 15 12.2 16.9
2001-11-12 09:44:37 51°18.819 2°51.656 8.7 14.9 11 16.9
2001-11-12 09:44:43 51°18.844 2°51.662 7.3 14.8 9.9 17
2001-11-12 09:44:48 51°18.864 2°51.666 6.5 14.8 8 17
2001-11-12 09:44:53 51°18.885 2°51.669 4.7 14.7 7.1 17
2001-11-12 09:44:57 51°18.901 2°51.67 1 14.6 4.8 17
2001-11-12 09:45:03 51°18.925 2°51.67 357.7 14.5 2 17.1
2001-11-12 09:45:08 51°18.945 2°51.668 354.5 14.4 358.4 17
2001-11-12 09:45:13 51°18.964 2°51.663 349.7 14.3 355.2 17
2001-11-12 09:45:18 51°18.983 2°51.658 346.7 14 350.9 17.3
2001-11-12 09:45:23 51°19.001 2°51.65 342.8 13.9 347.8 17.8
2001-11-12 09:45:27 51°19.015 2°51.643 338.3 13.7 344.2 17.8
2001-11-12 09:45:33 51°19.036 2°51.629 334.2 13.6 340 17.9
2001-11-12 09:45:38 51°19.053 2°51.616 331.8 13.5 336.2 18
2001-11-12 09:45:43 51°19.07 2°51.604 331.7 13.5 335.6 18.1
2001-11-12 09:45:48 51°19.088 2°51.592 332.7 13.6 335.7 18.2
2001-11-12 09:45:53 51°19.105 2°51.58 334.5 13.6 336.6 18.3
2001-11-12 09:45:57 51°19.119 2°51.572 336.5 13.6 338.3 18.2
2001-11-12 09:46:03 51°19.141 2°51.561 338.8 13.7 340.7 18.2
2001-11-12 09:46:08 51°19.159 2°51.552 340.3 13.8 342.1 18.2
2001-11-12 09:46:13 51°19.177 2°51.542 339 13.7 341.8 18.2
2001-11-12 09:46:17 51°19.191 2°51.533 336.7 13.7 339.7 18.1
2001-11-12 09:46:23 51°19.211 2°51.518 333.7 13.6 337.2 18.2
2001-11-12 09:46:28 51°19.228 2°51.505 331.3 13.5 334.7 18.2
2001-11-12 09:46:32 51°19.242 2°51.494 330 13.5 333.5 18.3
2001-11-12 09:46:37 51°19.258 2°51.48 328.8 13.5 332.9 18.3
2001-11-12 09:46:43 51°19.278 2°51.463 328.7 13.5 332.5 18.1
2001-11-12 09:46:48 51°19.295 2°51.449 327.8 13.5 331.6 18.2
2001-11-12 09:46:53 51°19.311 2°51.433 326.7 13.5 330.5 18.2
2001-11-12 09:46:58 51°19.327 2°51.419 326.7 13.5 329.9 18.1
2001-11-12 09:47:02 51°19.34 2°51.407 327.3 13.5 330.3 18.1
2001-11-12 09:47:08 51°19.36 2°51.39 327.8 13.5 331.2 18
2001-11-12 09:47:13 51°19.377 2°51.376 328.7 13.5 331.9 18
2001-11-12 09:47:17 51°19.39 2°51.365 328.7 13.5 332.2 18
2001-11-12 09:47:23 51°19.41 2°51.348 329.7 13.5 332.5 18
2001-11-12 09:47:28 51°19.426 2°51.335 329.8 13.5 332.7 18
2001-11-12 09:47:33 51°19.443 2°51.321 330.5 13.5 333.5 18
2001-11-12 09:47:38 51°19.46 2°51.308 330.2 13.5 333.7 17.9
2001-11-12 09:47:43 51°19.477 2°51.294 329.3 13.5 333.6 17.9
2001-11-12 09:47:48 51°19.493 2°51.281 328.5 13.5 332.6 17.9
2001-11-12 09:47:53 51°19.509 2°51.266 327.3 13.4 332 17.9
2001-11-12 09:47:57 51°19.523 2°51.256 328.2 13.4 332.1 17.8
2001-11-12 09:48:03 51°19.543 2°51.24 329.7 13.4 332.9 17.7
2001-11-12 09:48:08 51°19.56 2°51.227 331.3 13.5 333.8 17.6
2001-11-12 09:48:13 51°19.577 2°51.215 333 13.6 335.8 17.6
2001-11-12 09:48:18 51°19.595 2°51.204 334.5 13.6 337.4 17.5
2001-11-12 09:48:23 51°19.613 2°51.194 336.8 13.7 339.1 17.5
2001-11-12 09:48:28 51°19.631 2°51.185 338.7 13.7 341.1 17.4
2001-11-12 09:48:33 51°19.65 2°51.177 341.3 13.8 343.2 17.2
2001-11-12 09:48:37 51°19.665 2°51.171 342.5 13.8 345.3 17
2001-11-12 09:48:43 51°19.687 2°51.161 341.7 13.8 345.2 16.6
2001-11-12 09:48:48 51°19.705 2°51.153 340.2 13.7 343.7 16.6
2001-11-12 09:48:52 51°19.719 2°51.144 338.2 13.7 342 16.4
2001-11-12 09:48:57 51°19.737 2°51.134 335.8 13.5 340.2 16
2001-11-12 09:49:03 51°19.757 2°51.119 333.5 13.4 337.6 15.5
2001-11-12 09:49:08 51°19.774 2°51.107 332.3 13.4 335.8 15.3
2001-11-12 09:49:13 51°19.791 2°51.095 332.3 13.5 335.4 15.1
2001-11-12 09:49:17 51°19.805 2°51.085 332.8 13.5 335.6 15
2001-11-12 09:49:23 51°19.825 2°51.071 333.3 13.5 335.8 15
2001-11-12 09:49:28 51°19.842 2°51.059 334.2 13.5 336.7 15.1
2001-11-12 09:49:33 51°19.86 2°51.048 335 13.5 337.4 15.1
2001-11-12 09:49:38 51°19.877 2°51.038 336.2 13.5 338.8 14.8
2001-11-12 09:49:43 51°19.895 2°51.027 337.2 13.6 339.4 15
2001-11-12 09:49:48 51°19.913 2°51.017 338.2 13.6 340.4 15.1
2001-11-12 09:49:53 51°19.93 2°51.007 337 13.6 340.2 15.1
2001-11-12 09:49:58 51°19.948 2°50.996 336 13.5 339.4 15.2
2001-11-12 09:50:03 51°19.965 2°50.984 334.3 13.5 337.8 15.6
2001-11-12 09:50:08 51°19.982 2°50.971 332.8 13.4 336 15.6
2001-11-12 09:50:13 51°19.998 2°50.958 331.7 13.4 334.8 15.6
2001-11-12 09:50:18 51°20.015 2°50.945 331.3 13.4 334 15.8
2001-11-12 09:50:23 51°20.032 2°50.932 331.5 13.4 333.9 15.9
2001-11-12 09:50:28 51°20.049 2°50.919 332 13.4 334.2 16.1
2001-11-12 09:50:33 51°20.065 2°50.907 332.5 13.4 334.5 16.3
2001-11-12 09:50:37 51°20.079 2°50.896 332.7 13.5 334.7 16.3
2001-11-12 09:50:43 51°20.099 2°50.881 333.3 13.4 335.2 16.5
2001-11-12 09:50:48 51°20.116 2°50.869 333.2 13.4 335.6 16.6
2001-11-12 09:50:53 51°20.133 2°50.858 334.2 13.4 336.1 16.7
2001-11-12 09:50:58 51°20.151 2°50.846 334.7 13.4 336.6 16.7
2001-11-12 09:51:03 51°20.168 2°50.834 335.3 13.4 337.1 16.5
2001-11-12 09:51:08 51°20.185 2°50.823 336 13.4 337.7 16.6
2001-11-12 09:51:13 51°20.203 2°50.813 336.3 13.5 338.5 16.5
2001-11-12 09:51:18 51°20.221 2°50.803 337.5 13.5 339.4 16.7
2001-11-12 09:51:23 51°20.238 2°50.793 338.3 13.5 340 17.2
2001-11-12 09:51:28 51°20.256 2°50.783 339 13.6 340.7 17.5
2001-11-12 09:51:33 51°20.274 2°50.774 339.8 13.7 341.5 17.7
2001-11-12 09:51:38 51°20.293 2°50.765 340.8 13.7 342.5 18
2001-11-12 09:51:42 51°20.307 2°50.759 341.7 13.7 343.6 17.9
2001-11-12 09:51:47 51°20.326 2°50.751 342.5 13.8 344.7 18.3
2001-11-12 09:51:53 51°20.348 2°50.742 344 13.8 345.5 18.4
2001-11-12 09:51:57 51°20.363 2°50.736 345 13.9 346.6 18.6
2001-11-12 09:52:03 51°20.386 2°50.729 345.3 13.9 347.3 18.8
2001-11-12 09:52:08 51°20.405 2°50.722 346 14 347.9 19
2001-11-12 09:52:13 51°20.424 2°50.715 345.7 14 347.7 19.3
2001-11-12 09:52:18 51°20.442 2°50.708 345.7 14 347.6 19.5
2001-11-12 09:52:23 51°20.461 2°50.701 345 14 347.1 19.7
2001-11-12 09:52:28 51°20.48 2°50.694 344.5 14 346.4 19.9
2001-11-12 09:52:33 51°20.499 2°50.686 343.5 14 346 20.3
2001-11-12 09:52:37 51°20.514 2°50.679 342.7 13.9 345.4 20.5
2001-11-12 09:52:43 51°20.536 2°50.669 342.2 13.9 344.9 20.7
2001-11-12 09:52:48 51°20.554 2°50.661 341.7 13.9 344.2 21
2001-11-12 09:52:53 51°20.573 2°50.652 341.2 13.9 343.6 21.3
2001-11-12 09:52:57 51°20.587 2°50.644 340 13.8 342.7 21.5
2001-11-12 09:53:03 51°20.609 2°50.633 339.3 13.8 341.6 21.8
2001-11-12 09:53:08 51°20.627 2°50.622 338.5 13.8 340.8 22
2001-11-12 09:53:13 51°20.645 2°50.611 337 13.8 340 22.4
2001-11-12 09:53:17 51°20.659 2°50.603 337 13.8 339.2 22.5
2001-11-12 09:53:23 51°20.681 2°50.589 336.8 13.8 339 22.9
2001-11-12 09:53:28 51°20.699 2°50.578 336.7 13.8 338.6 23.2
2001-11-12 09:53:32 51°20.713 2°50.57 337.8 13.8 339.3 23.5
2001-11-12 09:53:38 51°20.736 2°50.559 339.3 13.9 341.1 23.6
2001-11-12 09:53:43 51°20.754 2°50.55 341.5 14 342.5 23.8
2001-11-12 09:53:47 51°20.769 2°50.544 343.7 14 344.6 24
2001-11-12 09:53:53 51°20.793 2°50.536 345.8 14.1 347 24.2
2001-11-12 09:53:58 51°20.812 2°50.531 347.3 14.1 348.5 24.5
2001-11-12 09:54:03 51°20.831 2°50.524 346.5 14.2 348.7 24.7
2001-11-12 09:54:07 51°20.846 2°50.518 345 14.1 347.8 24.9
2001-11-12 09:54:13 51°20.869 2°50.508 343.3 14.1 346.2 25.1
2001-11-12 09:54:18 51°20.887 2°50.499 341.2 14.1 343.9 25.5
2001-11-12 09:54:23 51°20.906 2°50.49 340.2 14 342.8 25.6
2001-11-12 09:54:28 51°20.925 2°50.48 339.5 14.1 341.8 25.5
2001-11-12 09:54:33 51°20.943 2°50.471 339.8 14 342.1 25.7
2001-11-12 09:54:38 51°20.961 2°50.461 340.2 14 342.1 25.9
2001-11-12 09:54:43 51°20.98 2°50.452 340.3 14 342.4 26
2001-11-12 09:54:48 51°20.998 2°50.443 341.2 14 342.6 26
2001-11-12 09:54:52 51°21.014 2°50.436 341.5 14.1 343.4 26
2001-11-12 09:54:57 51°21.032 2°50.428 341.8 14.1 343.9 25.9
2001-11-12 09:55:03 51°21.055 2°50.418 342.5 14.1 344.4 26
2001-11-12 09:55:08 51°21.074 2°50.41 343 14.1 345.1 26.1
2001-11-12 09:55:13 51°21.093 2°50.402 343.5 14.1 345.3 26.1
2001-11-12 09:55:18 51°21.112 2°50.394 343.5 14.2 345.5 26.1
2001-11-12 09:55:23 51°21.131 2°50.386 342.8 14.1 345.1 26.1
2001-11-12 09:55:28 51°21.15 2°50.377 341.8 14.1 344.3 26.1
2001-11-12 09:55:33 51°21.168 2°50.368 341 14.1 343.3 26.1
2001-11-12 09:55:38 51°21.186 2°50.358 339.5 14 341.8 26.1
2001-11-12 09:55:43 51°21.204 2°50.347 338.2 14 341 26.1
2001-11-12 09:55:48 51°21.223 2°50.337 337.7 13.9 340.1 26.1
2001-11-12 09:55:53 51°21.241 2°50.326 337.7 13.9 339.9 26.2
2001-11-12 09:55:58 51°21.259 2°50.316 338.2 14 340 26.2
2001-11-12 09:56:03 51°21.277 2°50.306 339 14 340.7 26.2
2001-11-12 09:56:08 51°21.296 2°50.297 340.2 14 342 26.1
2001-11-12 09:56:12 51°21.311 2°50.29 341.7 14.1 343 26.1
2001-11-12 09:56:17 51°21.33 2°50.282 342.7 14.1 344.5 26.1
2001-11-12 09:56:23 51°21.353 2°50.273 343.7 14.2 345.4 26.1
2001-11-12 09:56:28 51°21.372 2°50.266 344.7 14.2 346.4 26
2001-11-12 09:56:33 51°21.391 2°50.26 346 14.2 347.7 25.9
2001-11-12 09:56:37 51°21.407 2°50.256 348 14.2 349 25.7
2001-11-12 09:56:43 51°21.43 2°50.25 349.2 14.2 350.5 25.7
2001-11-12 09:56:48 51°21.45 2°50.245 350.5 14.3 351.7 25.7
2001-11-12 09:56:53 51°21.47 2°50.241 350 14.3 352 25.6
2001-11-12 09:56:57 51°21.485 2°50.236 347.8 14.3 350.9 25.5
2001-11-12 09:57:03 51°21.509 2°50.228 345.8 14.3 349.9 25.4
2001-11-12 09:57:08 51°21.528 2°50.22 344.2 14.2 346.7 25.4
2001-11-12 09:57:13 51°21.546 2°50.212 342 14.1 345.4 25.4
2001-11-12 09:57:18 51°21.565 2°50.203 340.2 14.1 343.2 25.6
2001-11-12 09:57:23 51°21.583 2°50.193 338.7 14.1 342.5 25.5
2001-11-12 09:57:28 51°21.602 2°50.183 338.2 14 341.3 25.5
2001-11-12 09:57:33 51°21.62 2°50.174 338.7 14 341.7 25.4
2001-11-12 09:57:37 51°21.635 2°50.166 340.5 14.1 343.1 25.3
2001-11-12 09:57:43 51°21.658 2°50.157 342.7 14.1 344.4 25.3
2001-11-12 09:57:48 51°21.677 2°50.15 344.5 14.2 346.2 25.2
2001-11-12 09:57:53 51°21.697 2°50.143 344.8 14.3 347.1 25.1
2001-11-12 09:57:58 51°21.716 2°50.135 343.3 14.2 346.1 25.1
2001-11-12 09:58:03 51°21.734 2°50.125 341.8 14.1 344.8 25
2001-11-12 09:58:08 51°21.752 2°50.116 339.2 14 341.9 25.1
2001-11-12 09:58:13 51°21.77 2°50.104 337 13.9 339.7 25.1
2001-11-12 09:58:18 51°21.787 2°50.091 334.2 13.7 337 25.1
2001-11-12 09:58:23 51°21.804 2°50.078 332.2 13.6 335.3 25.1
2001-11-12 09:58:28 51°21.822 2°50.066 332.8 13.6 334.8 25.2
2001-11-12 09:58:33 51°21.839 2°50.054 334.7 13.6 335.6 25.1
2001-11-12 09:58:38 51°21.857 2°50.044 336.8 13.6 338 25.3
2001-11-12 09:58:43 51°21.875 2°50.034 338.8 13.7 339.8 25.3
2001-11-12 09:58:48 51°21.893 2°50.025 341.3 13.7 342.5 25.3
2001-11-12 09:58:53 51°21.911 2°50.018 343.5 13.8 344.1 25.3
2001-11-12 09:58:58 51°21.93 2°50.011 344.7 13.8 346.1 25.5
2001-11-12 09:59:03 51°21.949 2°50.003 343.5 13.8 345.8 25.5
2001-11-12 09:59:08 51°21.967 2°49.994 341.8 13.8 344.2 25.7
2001-11-12 09:59:13 51°21.985 2°49.984 339.3 13.7 342.7 25.8
2001-11-12 09:59:18 51°22.003 2°49.974 338.3 13.7 341.2 26
2001-11-12 09:59:23 51°22.02 2°49.964 337.7 13.7 340.4 26
2001-11-12 09:59:28 51°22.038 2°49.953 337.3 13.6 339.5 26.1
2001-11-12 09:59:33 51°22.056 2°49.942 336.3 13.7 339.1 26.1
2001-11-12 09:59:37 51°22.07 2°49.933 336.3 13.6 338.7 26.2
2001-11-12 09:59:43 51°22.091 2°49.92 336 13.6 338.7 26.1
2001-11-12 09:59:48 51°22.109 2°49.909 336.3 13.6 338.7 26.2
2001-11-12 09:59:52 51°22.123 2°49.901 337 13.7 339.2 26.2
2001-11-12 09:59:58 51°22.144 2°49.889 338.2 13.7 340.1 26.3
2001-11-12 10:00:03 51°22.162 2°49.88 339.8 13.7 341.3 26.3
2001-11-12 10:00:08 51°22.181 2°49.871 340.8 13.8 343 26.2
2001-11-12 10:00:13 51°22.2 2°49.863 342.5 13.8 344.3 26.1
2001-11-12 10:00:18 51°22.218 2°49.857 345 13.8 346.2 25.9
2001-11-12 10:00:23 51°22.237 2°49.85 345.7 13.8 347.2 25.8
2001-11-12 10:00:28 51°22.256 2°49.844 345.3 13.8 347.5 25.7
2001-11-12 10:00:33 51°22.274 2°49.836 343.7 13.8 346.4 25.7
2001-11-12 10:00:37 51°22.289 2°49.829 342.5 13.8 345.1 25.8
2001-11-12 10:00:43 51°22.311 2°49.819 341.5 13.8 343.9 26
2001-11-12 10:00:48 51°22.33 2°49.811 342 13.8 344 26.1
2001-11-12 10:00:53 51°22.348 2°49.803 343.2 13.9 344.4 26.3
2001-11-12 10:00:58 51°22.367 2°49.796 344.3 13.9 346 26.4
2001-11-12 10:01:02 51°22.382 2°49.791 346.5 13.9 347.2 26.4
2001-11-12 10:01:08 51°22.405 2°49.784 346.8 13.9 348.5 26.2
2001-11-12 10:01:13 51°22.424 2°49.777 347 13.9 348.9 25.8
2001-11-12 10:01:17 51°22.439 2°49.773 345.7 13.8 348.4 25.6
2001-11-12 10:01:23 51°22.461 2°49.763 342.8 13.8 346.5 24.7
2001-11-12 10:01:28 51°22.479 2°49.754 341.3 13.8 344.2 23.9
2001-11-12 10:01:33 51°22.497 2°49.745 340.2 13.8 343.1 23.7
2001-11-12 10:01:38 51°22.516 2°49.736 339.8 13.8 342.3 23.4
2001-11-12 10:01:43 51°22.534 2°49.727 340.3 13.8 342.5 24.6
2001-11-12 10:01:48 51°22.553 2°49.719 342.3 13.8 343.9 24.4
2001-11-12 10:01:53 51°22.571 2°49.712 344.8 13.9 345.5 23.7
2001-11-12 10:01:58 51°22.59 2°49.706 346.8 13.9 347.5 23
2001-11-12 10:02:03 51°22.609 2°49.699 345.8 14 347.9 22.3
2001-11-12 10:02:08 51°22.628 2°49.692 345.5 13.9 346.9 21.6
2001-11-12 10:02:12 51°22.643 2°49.686 345.7 14 347.4 20.9
2001-11-12 10:02:18 51°22.666 2°49.677 345.3 13.9 346.1 20
2001-11-12 10:02:23 51°22.685 2°49.671 345.7 14 347 19.1
2001-11-12 10:02:28 51°22.704 2°49.663 345.8 14 346.4 19.4
2001-11-12 10:02:33 51°22.723 2°49.656 345.5 14 347.2 19.6
2001-11-12 10:02:38 51°22.741 2°49.648 345 14.1 345.7 19.2
2001-11-12 10:02:43 51°22.761 2°49.642 345.3 14 347.1 17.8
2001-11-12 10:02:48 51°22.779 2°49.633 344.3 14 345.4 16.4
2001-11-12 10:02:53 51°22.798 2°49.627 345.7 14 347.1 18.9
2001-11-12 10:02:58 51°22.817 2°49.618 344.3 14 346.1 18.8
2001-11-12 10:03:03 51°22.836 2°49.613 346 14.1 346.9 18.4
2001-11-12 10:03:08 51°22.855 2°49.603 344.7 14 345.5 18.5
2001-11-12 10:03:13 51°22.874 2°49.598 346.7 14 346.7 18.7
2001-11-12 10:03:18 51°22.893 2°49.59 346 14 346.9 18.6
2001-11-12 10:03:23 51°22.912 2°49.584 347.3 14 347.7 16.7
2001-11-12 10:03:28 51°22.931 2°49.577 346.5 14.1 347.4 18.1
2001-11-12 10:03:33 51°22.951 2°49.572 347.3 14.1 348.4 18.6
2001-11-12 10:03:38 51°22.969 2°49.564 346.8 14.1 347.6 18.9
2001-11-12 10:03:43 51°22.989 2°49.558 347.2 14.1 347.7 19.1
2001-11-12 10:03:48 51°23.008 2°49.551 346.8 14.1 347.6 19
2001-11-12 10:03:53 51°23.027 2°49.545 347.7 14.1 347.9 18.3
2001-11-12 10:03:58 51°23.046 2°49.538 347.5 14.1 347.8 17.1
2001-11-12 10:04:02 51°23.062 2°49.533 347.2 14.1 348.1 19.2
2001-11-12 10:04:08 51°23.085 2°49.526 347.3 14.2 348.3 20
2001-11-12 10:04:13 51°23.104 2°49.518 346.5 14.2 348.1 19.4
2001-11-12 10:04:18 51°23.123 2°49.512 346.5 14.1 347.6 20.5
2001-11-12 10:04:23 51°23.142 2°49.505 346.5 14.1 347.2 21.1
2001-11-12 10:04:28 51°23.161 2°49.498 346.7 14.1 347.3 21.4
2001-11-12 10:04:33 51°23.18 2°49.491 346.3 14.1 347 21
2001-11-12 10:04:38 51°23.199 2°49.484 346.3 14.1 347.2 21.1
2001-11-12 10:04:43 51°23.219 2°49.477 346.2 14.2 347 21.7
2001-11-12 10:04:48 51°23.238 2°49.47 347.2 14.1 347.3 21.3
2001-11-12 10:04:53 51°23.257 2°49.462 345.5 14.1 347.7 22.2
2001-11-12 10:04:58 51°23.276 2°49.457 346.8 14.1 347 22.6
2001-11-12 10:05:03 51°23.295 2°49.449 345.8 14.1 347.2 22.8
2001-11-12 10:05:08 51°23.314 2°49.443 346.3 14.1 347.2 23.2
2001-11-12 10:05:13 51°23.333 2°49.435 345.8 14.1 346.8 23.2
2001-11-12 10:05:18 51°23.352 2°49.429 347.2 14.1 346.8 22.9
2001-11-12 10:05:22 51°23.367 2°49.422 346 14.1 346.9 22.3
2001-11-12 10:05:28 51°23.39 2°49.415 347 14 347.6 21.7
2001-11-12 10:05:33 51°23.409 2°49.407 346 14 346.9 21.5
2001-11-12 10:05:37 51°23.424 2°49.402 346.5 14 347 22.3
2001-11-12 10:05:43 51°23.447 2°49.394 345.8 14.1 347.6 23.1
2001-11-12 10:05:48 51°23.466 2°49.388 347 14 347.7 23.6
2001-11-12 10:05:52 51°23.481 2°49.382 346 14 348 24
2001-11-12 10:05:58 51°23.504 2°49.373 346.5 14 347 24.1
2001-11-12 10:06:03 51°23.523 2°49.366 346 14 347.6 23.8
2001-11-12 10:06:08 51°23.542 2°49.36 347.3 14 347.6 24
2001-11-12 10:06:13 51°23.561 2°49.351 345 14.1 347.3 24.1
2001-11-12 10:06:18 51°23.58 2°49.345 346.3 14 345.9 24.2
2001-11-12 10:06:22 51°23.595 2°49.34 345.5 14.1 347.4 24.1
2001-11-12 10:06:27 51°23.614 2°49.331 345.2 14 345.7 24.6
2001-11-12 10:06:33 51°23.637 2°49.323 345.3 14 346.9 25.1
2001-11-12 10:06:37 51°23.651 2°49.316 345.2 14 345.5 25.4
2001-11-12 10:06:43 51°23.674 2°49.309 346.2 14 347 25.5
2001-11-12 10:06:48 51°23.693 2°49.3 345 13.9 345.4 24.9
2001-11-12 10:06:52 51°23.708 2°49.296 346.5 13.9 346.8 24.1
2001-11-12 10:06:58 51°23.73 2°49.286 344.8 13.9 345.9 24.8
2001-11-12 10:07:02 51°23.746 2°49.282 346.7 13.9 347.5 25.4
2001-11-12 10:07:08 51°23.768 2°49.272 346.7 14 347 25.3
2001-11-12 10:07:13 51°23.788 2°49.268 347.7 14 348.8 25.3
2001-11-12 10:07:18 51°23.806 2°49.26 346.8 14 347.9 25.2
2001-11-12 10:07:23 51°23.826 2°49.255 347.8 14 348.9 25.2
2001-11-12 10:07:28 51°23.844 2°49.247 346.8 14 347.6 24.9
2001-11-12 10:07:32 51°23.86 2°49.244 347.5 14.1 349 24.9
2001-11-12 10:07:38 51°23.883 2°49.235 347.2 14.1 347.6 24.9
2001-11-12 10:07:43 51°23.902 2°49.229 347.3 14.1 349.1 25
2001-11-12 10:07:48 51°23.921 2°49.222 347 14.1 347.7 25.1
2001-11-12 10:07:53 51°23.94 2°49.217 347.2 14.1 348.8 25.4
2001-11-12 10:07:57 51°23.955 2°49.21 344.8 14.1 347.3 25.4
2001-11-12 10:08:03 51°23.979 2°49.203 346.5 14.1 347.5 25.4
2001-11-12 10:08:08 51°23.997 2°49.195 345.8 14.1 347.3 25.3
2001-11-12 10:08:13 51°24.017 2°49.19 346.3 14.1 348 25.5
2001-11-12 10:08:18 51°24.036 2°49.182 345.8 14.1 347.5 25.3
2001-11-12 10:08:22 51°24.051 2°49.178 346.2 14.1 348.3 25.4
2001-11-12 10:08:28 51°24.074 2°49.169 346 14 347.3 25.6
2001-11-12 10:08:33 51°24.093 2°49.163 346.8 14.1 348.3 25.7
2001-11-12 10:08:38 51°24.112 2°49.156 346.5 14.1 347.2 25.6
2001-11-12 10:08:43 51°24.131 2°49.15 346.3 14.1 348.1 25.6
2001-11-12 10:08:48 51°24.15 2°49.143 346.2 14.1 347.3 25.5
2001-11-12 10:08:52 51°24.166 2°49.138 346.3 14.1 348.1 25.5
2001-11-12 10:08:58 51°24.189 2°49.13 346.5 14.1 347.3 25.7
2001-11-12 10:09:03 51°24.208 2°49.123 346.2 14.1 348.1 25.7
2001-11-12 10:09:08 51°24.227 2°49.117 347.3 14 347.4 25.6
2001-11-12 10:09:12 51°24.242 2°49.111 346.2 14.1 348.3 25.7
2001-11-12 10:09:18 51°24.265 2°49.104 346.8 14 347.3 25.6
2001-11-12 10:09:23 51°24.284 2°49.097 345.8 14.1 348.5 25.1
2001-11-12 10:09:28 51°24.303 2°49.091 346.3 13.9 347.5 24.9
2001-11-12 10:09:33 51°24.322 2°49.084 345.5 14 348.1 24.7
2001-11-12 10:09:38 51°24.341 2°49.078 346.3 14 347.8 24.5
2001-11-12 10:09:43 51°24.36 2°49.071 346 14 348.3 24.5
2001-11-12 10:09:48 51°24.379 2°49.065 346.5 14 347.9 24.7
2001-11-12 10:09:53 51°24.398 2°49.058 345.8 14.1 348.4 24.5
2001-11-12 10:09:58 51°24.417 2°49.051 346.3 14 347.2 24.4
2001-11-12 10:10:03 51°24.436 2°49.045 346.3 14 348.4 24.8
2001-11-12 10:10:08 51°24.455 2°49.038 346.7 14 347.6 25
2001-11-12 10:10:13 51°24.474 2°49.032 346.7 14.2 348.7 25.1
2001-11-12 10:10:18 51°24.494 2°49.025 346.3 14.1 347.7 25.1
2001-11-12 10:10:23 51°24.513 2°49.019 347.2 14.2 348.6 25
2001-11-12 10:10:28 51°24.532 2°49.013 346.8 14.1 348.4 25